sensor_id;sensor_type;location;lat;lon;timestamp;P1;durP1;ratioP1;P2;durP2;ratioP2
64915;SDS011;51427;-27.442;153.014;2024-03-02T00:01:55;2.40;;;1.17;;
64915;SDS011;51427;-27.442;153.014;2024-03-02T00:04:27;2.40;;;1.10;;
64915;SDS011;51427;-27.442;153.014;2024-03-02T00:06:55;2.70;;;0.85;;
64915;SDS011;51427;-27.442;153.014;2024-03-02T00:09:22;0.85;;;0.65;;
64915;SDS011;51427;-27.442;153.014;2024-03-02T00:11:50;2.80;;;0.80;;
64915;SDS011;51427;-27.442;153.014;2024-03-02T00:14:18;3.78;;;0.80;;
64915;SDS011;51427;-27.442;153.014;2024-03-02T00:16:46;3.53;;;0.90;;
64915;SDS011;51427;-27.442;153.014;2024-03-02T00:19:13;1.05;;;0.60;;
64915;SDS011;51427;-27.442;153.014;2024-03-02T00:21:41;1.70;;;0.80;;
64915;SDS011;51427;-27.442;153.014;2024-03-02T00:27:05;3.92;;;1.33;;
64915;SDS011;51427;-27.442;153.014;2024-03-02T00:29:37;4.03;;;1.17;;
64915;SDS011;51427;-27.442;153.014;2024-03-02T00:32:10;3.20;;;0.90;;
64915;SDS011;51427;-27.442;153.014;2024-03-02T00:34:40;1.98;;;0.90;;
64915;SDS011;51427;-27.442;153.014;2024-03-02T00:37:08;1.27;;;0.95;;
64915;SDS011;51427;-27.442;153.014;2024-03-02T00:39:37;3.65;;;0.93;;
64915;SDS011;51427;-27.442;153.014;2024-03-02T00:42:05;3.78;;;0.80;;
64915;SDS011;51427;-27.442;153.014;2024-03-02T00:44:33;4.50;;;1.00;;
64915;SDS011;51427;-27.442;153.014;2024-03-02T00:47:03;2.42;;;1.55;;
64915;SDS011;51427;-27.442;153.014;2024-03-02T00:49:30;2.90;;;1.20;;
64915;SDS011;51427;-27.442;153.014;2024-03-02T00:51:58;4.00;;;0.98;;
64915;SDS011;51427;-27.442;153.014;2024-03-02T00:54:26;2.83;;;0.85;;
64915;SDS011;51427;-27.442;153.014;2024-03-02T00:56:54;1.73;;;1.10;;
64915;SDS011;51427;-27.442;153.014;2024-03-02T00:59:22;2.42;;;1.08;;
64915;SDS011;51427;-27.442;153.014;2024-03-02T01:01:50;3.78;;;1.48;;
64915;SDS011;51427;-27.442;153.014;2024-03-02T01:04:18;2.95;;;1.20;;
64915;SDS011;51427;-27.442;153.014;2024-03-02T01:06:45;2.63;;;1.00;;
64915;SDS011;51427;-27.442;153.014;2024-03-02T01:09:14;1.77;;;0.90;;
64915;SDS011;51427;-27.442;153.014;2024-03-02T01:11:43;3.05;;;1.30;;
64915;SDS011;51427;-27.442;153.014;2024-03-02T01:14:11;3.80;;;1.42;;
64915;SDS011;51427;-27.442;153.014;2024-03-02T01:16:38;3.13;;;1.00;;
64915;SDS011;51427;-27.442;153.014;2024-03-02T01:19:06;3.38;;;1.38;;
64915;SDS011;51427;-27.442;153.014;2024-03-02T01:21:35;2.67;;;1.50;;
64915;SDS011;51427;-27.442;153.014;2024-03-02T01:24:03;1.63;;;1.00;;
64915;SDS011;51427;-27.442;153.014;2024-03-02T01:26:31;2.90;;;0.93;;
64915;SDS011;51427;-27.442;153.014;2024-03-02T01:28:58;2.95;;;1.27;;
64915;SDS011;51427;-27.442;153.014;2024-03-02T01:31:26;1.83;;;1.15;;
64915;SDS011;51427;-27.442;153.014;2024-03-02T01:33:53;2.35;;;1.10;;
64915;SDS011;51427;-27.442;153.014;2024-03-02T01:36:21;3.20;;;0.98;;
64915;SDS011;51427;-27.442;153.014;2024-03-02T01:38:49;3.65;;;1.13;;
64915;SDS011;51427;-27.442;153.014;2024-03-02T01:41:17;1.60;;;1.08;;
64915;SDS011;51427;-27.442;153.014;2024-03-02T01:43:44;3.40;;;1.50;;
64915;SDS011;51427;-27.442;153.014;2024-03-02T01:46:12;3.80;;;1.40;;
64915;SDS011;51427;-27.442;153.014;2024-03-02T01:48:40;3.42;;;1.00;;
64915;SDS011;51427;-27.442;153.014;2024-03-02T01:51:07;5.40;;;1.38;;
64915;SDS011;51427;-27.442;153.014;2024-03-02T01:53:36;3.92;;;1.83;;
64915;SDS011;51427;-27.442;153.014;2024-03-02T01:56:04;1.83;;;0.90;;
64915;SDS011;51427;-27.442;153.014;2024-03-02T01:58:32;1.75;;;0.90;;
64915;SDS011;51427;-27.442;153.014;2024-03-02T02:01:00;3.08;;;1.15;;
64915;SDS011;51427;-27.442;153.014;2024-03-02T02:03:28;3.55;;;1.05;;
64915;SDS011;51427;-27.442;153.014;2024-03-02T02:05:56;2.75;;;1.00;;
64915;SDS011;51427;-27.442;153.014;2024-03-02T02:08:24;4.57;;;1.45;;
64915;SDS011;51427;-27.442;153.014;2024-03-02T02:10:51;3.95;;;1.00;;
64915;SDS011;51427;-27.442;153.014;2024-03-02T02:13:19;2.55;;;0.85;;
64915;SDS011;51427;-27.442;153.014;2024-03-02T02:15:47;1.63;;;0.95;;
64915;SDS011;51427;-27.442;153.014;2024-03-02T02:18:14;1.88;;;1.00;;
64915;SDS011;51427;-27.442;153.014;2024-03-02T02:20:42;2.80;;;1.13;;
64915;SDS011;51427;-27.442;153.014;2024-03-02T02:23:09;2.63;;;1.13;;
64915;SDS011;51427;-27.442;153.014;2024-03-02T02:25:39;3.05;;;1.10;;
64915;SDS011;51427;-27.442;153.014;2024-03-02T02:28:06;1.30;;;1.10;;
64915;SDS011;51427;-27.442;153.014;2024-03-02T02:30:34;2.83;;;1.15;;
64915;SDS011;51427;-27.442;153.014;2024-03-02T02:33:02;2.08;;;0.80;;
64915;SDS011;51427;-27.442;153.014;2024-03-02T02:35:29;3.60;;;1.50;;
64915;SDS011;51427;-27.442;153.014;2024-03-02T02:37:57;1.55;;;0.85;;
64915;SDS011;51427;-27.442;153.014;2024-03-02T02:40:26;1.52;;;0.82;;
64915;SDS011;51427;-27.442;153.014;2024-03-02T02:42:57;3.33;;;1.20;;
64915;SDS011;51427;-27.442;153.014;2024-03-02T02:45:25;3.28;;;1.42;;
64915;SDS011;51427;-27.442;153.014;2024-03-02T02:47:53;3.78;;;1.08;;
64915;SDS011;51427;-27.442;153.014;2024-03-02T02:50:20;2.47;;;1.00;;
64915;SDS011;51427;-27.442;153.014;2024-03-02T02:52:48;2.80;;;0.93;;
64915;SDS011;51427;-27.442;153.014;2024-03-02T02:55:16;2.92;;;1.20;;
64915;SDS011;51427;-27.442;153.014;2024-03-02T02:57:43;1.42;;;1.10;;
64915;SDS011;51427;-27.442;153.014;2024-03-02T03:00:13;4.85;;;1.27;;
64915;SDS011;51427;-27.442;153.014;2024-03-02T03:02:42;3.10;;;1.30;;
64915;SDS011;51427;-27.442;153.014;2024-03-02T03:05:11;3.05;;;1.17;;
64915;SDS011;51427;-27.442;153.014;2024-03-02T03:07:40;2.10;;;1.35;;
64915;SDS011;51427;-27.442;153.014;2024-03-02T03:10:10;3.60;;;1.60;;
64915;SDS011;51427;-27.442;153.014;2024-03-02T03:12:37;2.65;;;1.67;;
64915;SDS011;51427;-27.442;153.014;2024-03-02T03:15:07;2.75;;;1.42;;
64915;SDS011;51427;-27.442;153.014;2024-03-02T03:17:35;2.85;;;1.55;;
64915;SDS011;51427;-27.442;153.014;2024-03-02T03:20:03;8.02;;;1.23;;
64915;SDS011;51427;-27.442;153.014;2024-03-02T03:22:35;5.40;;;0.95;;
64915;SDS011;51427;-27.442;153.014;2024-03-02T03:25:06;3.00;;;0.82;;
64915;SDS011;51427;-27.442;153.014;2024-03-02T03:27:34;6.07;;;0.80;;
64915;SDS011;51427;-27.442;153.014;2024-03-02T03:30:02;1.92;;;0.75;;
64915;SDS011;51427;-27.442;153.014;2024-03-02T03:32:31;2.95;;;0.95;;
64915;SDS011;51427;-27.442;153.014;2024-03-02T03:34:59;1.40;;;0.68;;
64915;SDS011;51427;-27.442;153.014;2024-03-02T03:37:27;3.15;;;0.90;;
64915;SDS011;51427;-27.442;153.014;2024-03-02T03:39:58;2.75;;;0.60;;
64915;SDS011;51427;-27.442;153.014;2024-03-02T03:42:27;4.25;;;0.90;;
64915;SDS011;51427;-27.442;153.014;2024-03-02T03:44:54;3.58;;;1.00;;
64915;SDS011;51427;-27.442;153.014;2024-03-02T03:47:22;3.70;;;0.90;;
64915;SDS011;51427;-27.442;153.014;2024-03-02T03:49:50;2.38;;;0.77;;
64915;SDS011;51427;-27.442;153.014;2024-03-02T03:52:18;4.13;;;1.15;;
64915;SDS011;51427;-27.442;153.014;2024-03-02T03:54:46;2.63;;;0.80;;
64915;SDS011;51427;-27.442;153.014;2024-03-02T03:57:14;3.13;;;1.08;;
64915;SDS011;51427;-27.442;153.014;2024-03-02T03:59:42;2.05;;;0.95;;
64915;SDS011;51427;-27.442;153.014;2024-03-02T04:02:10;2.85;;;0.82;;
64915;SDS011;51427;-27.442;153.014;2024-03-02T04:04:38;2.97;;;0.85;;
64915;SDS011;51427;-27.442;153.014;2024-03-02T04:07:06;2.60;;;0.88;;
64915;SDS011;51427;-27.442;153.014;2024-03-02T04:09:34;2.35;;;0.88;;
64915;SDS011;51427;-27.442;153.014;2024-03-02T04:12:01;1.88;;;0.70;;
64915;SDS011;51427;-27.442;153.014;2024-03-02T04:14:29;2.92;;;0.90;;
64915;SDS011;51427;-27.442;153.014;2024-03-02T04:16:57;2.83;;;0.82;;
64915;SDS011;51427;-27.442;153.014;2024-03-02T04:19:24;3.60;;;0.98;;
64915;SDS011;51427;-27.442;153.014;2024-03-02T04:21:52;3.70;;;0.90;;
64915;SDS011;51427;-27.442;153.014;2024-03-02T04:24:20;1.95;;;0.60;;
64915;SDS011;51427;-27.442;153.014;2024-03-02T04:26:47;3.75;;;0.73;;
64915;SDS011;51427;-27.442;153.014;2024-03-02T04:29:15;4.28;;;0.70;;
64915;SDS011;51427;-27.442;153.014;2024-03-02T04:31:43;3.05;;;0.70;;
64915;SDS011;51427;-27.442;153.014;2024-03-02T04:34:11;2.97;;;1.00;;
64915;SDS011;51427;-27.442;153.014;2024-03-02T04:36:38;2.70;;;1.00;;
64915;SDS011;51427;-27.442;153.014;2024-03-02T04:39:06;3.63;;;0.90;;
64915;SDS011;51427;-27.442;153.014;2024-03-02T04:41:35;3.40;;;0.75;;
64915;SDS011;51427;-27.442;153.014;2024-03-02T04:44:03;4.78;;;1.08;;
64915;SDS011;51427;-27.442;153.014;2024-03-02T04:46:31;2.22;;;1.00;;
64915;SDS011;51427;-27.442;153.014;2024-03-02T04:48:59;3.92;;;1.33;;
64915;SDS011;51427;-27.442;153.014;2024-03-02T04:51:26;3.50;;;1.17;;
64915;SDS011;51427;-27.442;153.014;2024-03-02T04:53:54;6.20;;;1.50;;
64915;SDS011;51427;-27.442;153.014;2024-03-02T04:56:21;4.32;;;1.17;;
64915;SDS011;51427;-27.442;153.014;2024-03-02T04:59:06;3.38;;;1.05;;
64915;SDS011;51427;-27.442;153.014;2024-03-02T05:01:33;3.50;;;1.15;;
64915;SDS011;51427;-27.442;153.014;2024-03-02T05:04:01;3.85;;;0.80;;
64915;SDS011;51427;-27.442;153.014;2024-03-02T05:06:29;1.60;;;0.60;;
64915;SDS011;51427;-27.442;153.014;2024-03-02T05:08:57;1.40;;;0.50;;
64915;SDS011;51427;-27.442;153.014;2024-03-02T05:11:24;2.28;;;0.93;;
64915;SDS011;51427;-27.442;153.014;2024-03-02T05:14:12;2.50;;;0.50;;
64915;SDS011;51427;-27.442;153.014;2024-03-02T05:16:39;2.55;;;0.47;;
64915;SDS011;51427;-27.442;153.014;2024-03-02T05:19:10;6.88;;;1.15;;
64915;SDS011;51427;-27.442;153.014;2024-03-02T05:21:37;3.35;;;0.70;;
64915;SDS011;51427;-27.442;153.014;2024-03-02T05:24:05;3.42;;;0.85;;
64915;SDS011;51427;-27.442;153.014;2024-03-02T05:26:33;3.92;;;1.05;;
64915;SDS011;51427;-27.442;153.014;2024-03-02T05:29:00;2.38;;;0.77;;
64915;SDS011;51427;-27.442;153.014;2024-03-02T05:31:28;3.30;;;0.77;;
64915;SDS011;51427;-27.442;153.014;2024-03-02T05:33:56;4.03;;;0.85;;
64915;SDS011;51427;-27.442;153.014;2024-03-02T05:36:24;1.67;;;0.80;;
64915;SDS011;51427;-27.442;153.014;2024-03-02T05:38:52;3.35;;;0.68;;
64915;SDS011;51427;-27.442;153.014;2024-03-02T05:41:20;2.63;;;0.70;;
64915;SDS011;51427;-27.442;153.014;2024-03-02T05:43:47;3.90;;;0.80;;
64915;SDS011;51427;-27.442;153.014;2024-03-02T05:46:15;2.45;;;0.82;;
64915;SDS011;51427;-27.442;153.014;2024-03-02T05:48:43;6.80;;;1.00;;
64915;SDS011;51427;-27.442;153.014;2024-03-02T05:51:10;4.25;;;0.90;;
64915;SDS011;51427;-27.442;153.014;2024-03-02T05:53:38;3.38;;;0.85;;
64915;SDS011;51427;-27.442;153.014;2024-03-02T05:56:06;3.70;;;0.80;;
64915;SDS011;51427;-27.442;153.014;2024-03-02T05:58:34;4.38;;;0.88;;
64915;SDS011;51427;-27.442;153.014;2024-03-02T06:01:14;2.75;;;0.70;;
64915;SDS011;51427;-27.442;153.014;2024-03-02T06:03:43;5.75;;;1.13;;
64915;SDS011;51427;-27.442;153.014;2024-03-02T06:06:11;1.98;;;0.57;;
64915;SDS011;51427;-27.442;153.014;2024-03-02T06:08:39;3.00;;;0.80;;
64915;SDS011;51427;-27.442;153.014;2024-03-02T06:11:06;4.97;;;1.10;;
64915;SDS011;51427;-27.442;153.014;2024-03-02T06:13:34;4.57;;;1.05;;
64915;SDS011;51427;-27.442;153.014;2024-03-02T06:16:02;3.63;;;0.93;;
64915;SDS011;51427;-27.442;153.014;2024-03-02T06:18:29;3.75;;;0.90;;
64915;SDS011;51427;-27.442;153.014;2024-03-02T06:20:57;2.35;;;0.68;;
64915;SDS011;51427;-27.442;153.014;2024-03-02T06:23:24;2.25;;;0.70;;
64915;SDS011;51427;-27.442;153.014;2024-03-02T06:25:52;3.10;;;0.73;;
64915;SDS011;51427;-27.442;153.014;2024-03-02T06:28:23;3.00;;;0.63;;
64915;SDS011;51427;-27.442;153.014;2024-03-02T06:30:51;3.05;;;0.88;;
64915;SDS011;51427;-27.442;153.014;2024-03-02T06:33:18;3.47;;;1.15;;
64915;SDS011;51427;-27.442;153.014;2024-03-02T06:35:46;3.35;;;0.90;;
64915;SDS011;51427;-27.442;153.014;2024-03-02T06:38:15;3.92;;;0.80;;
64915;SDS011;51427;-27.442;153.014;2024-03-02T06:40:42;6.28;;;0.90;;
64915;SDS011;51427;-27.442;153.014;2024-03-02T06:43:10;5.18;;;1.13;;
64915;SDS011;51427;-27.442;153.014;2024-03-02T06:45:38;2.63;;;0.95;;
64915;SDS011;51427;-27.442;153.014;2024-03-02T06:48:05;2.15;;;0.80;;
64915;SDS011;51427;-27.442;153.014;2024-03-02T06:50:33;5.32;;;1.15;;
64915;SDS011;51427;-27.442;153.014;2024-03-02T06:53:01;3.55;;;0.90;;
64915;SDS011;51427;-27.442;153.014;2024-03-02T06:55:30;2.72;;;0.60;;
64915;SDS011;51427;-27.442;153.014;2024-03-02T06:57:57;2.88;;;0.75;;
64915;SDS011;51427;-27.442;153.014;2024-03-02T07:00:25;3.45;;;0.98;;
64915;SDS011;51427;-27.442;153.014;2024-03-02T07:02:53;4.38;;;1.23;;
64915;SDS011;51427;-27.442;153.014;2024-03-02T07:05:20;5.18;;;1.75;;
64915;SDS011;51427;-27.442;153.014;2024-03-02T07:07:48;4.47;;;1.38;;
64915;SDS011;51427;-27.442;153.014;2024-03-02T07:10:16;3.97;;;0.90;;
64915;SDS011;51427;-27.442;153.014;2024-03-02T07:12:43;2.75;;;1.00;;
64915;SDS011;51427;-27.442;153.014;2024-03-02T07:15:11;4.05;;;0.77;;
64915;SDS011;51427;-27.442;153.014;2024-03-02T07:17:58;2.47;;;1.15;;
64915;SDS011;51427;-27.442;153.014;2024-03-02T07:20:26;2.55;;;0.90;;
64915;SDS011;51427;-27.442;153.014;2024-03-02T07:22:54;2.38;;;1.00;;
64915;SDS011;51427;-27.442;153.014;2024-03-02T07:25:21;3.90;;;1.20;;
64915;SDS011;51427;-27.442;153.014;2024-03-02T07:27:49;3.80;;;1.35;;
64915;SDS011;51427;-27.442;153.014;2024-03-02T07:30:18;3.20;;;0.80;;
64915;SDS011;51427;-27.442;153.014;2024-03-02T07:32:46;3.40;;;1.20;;
64915;SDS011;51427;-27.442;153.014;2024-03-02T07:35:16;4.35;;;0.98;;
64915;SDS011;51427;-27.442;153.014;2024-03-02T07:37:44;2.45;;;0.93;;
64915;SDS011;51427;-27.442;153.014;2024-03-02T07:40:13;3.15;;;0.93;;
64915;SDS011;51427;-27.442;153.014;2024-03-02T07:42:40;5.32;;;1.60;;
64915;SDS011;51427;-27.442;153.014;2024-03-02T07:45:08;2.63;;;0.82;;
64915;SDS011;51427;-27.442;153.014;2024-03-02T07:47:35;3.95;;;1.10;;
64915;SDS011;51427;-27.442;153.014;2024-03-02T07:50:03;3.83;;;1.00;;
64915;SDS011;51427;-27.442;153.014;2024-03-02T07:52:32;2.65;;;0.90;;
64915;SDS011;51427;-27.442;153.014;2024-03-02T07:54:59;5.07;;;1.23;;
64915;SDS011;51427;-27.442;153.014;2024-03-02T07:57:27;3.00;;;1.17;;
64915;SDS011;51427;-27.442;153.014;2024-03-02T07:59:54;2.17;;;1.05;;
64915;SDS011;51427;-27.442;153.014;2024-03-02T08:02:21;6.70;;;1.40;;
64915;SDS011;51427;-27.442;153.014;2024-03-02T08:04:48;2.53;;;0.90;;
64915;SDS011;51427;-27.442;153.014;2024-03-02T08:07:16;5.88;;;1.27;;
64915;SDS011;51427;-27.442;153.014;2024-03-02T08:09:43;6.10;;;1.20;;
64915;SDS011;51427;-27.442;153.014;2024-03-02T08:12:11;2.90;;;1.08;;
64915;SDS011;51427;-27.442;153.014;2024-03-02T08:14:38;4.03;;;1.15;;
64915;SDS011;51427;-27.442;153.014;2024-03-02T08:17:06;4.53;;;1.15;;
64915;SDS011;51427;-27.442;153.014;2024-03-02T08:19:35;4.35;;;1.10;;
64915;SDS011;51427;-27.442;153.014;2024-03-02T08:22:03;4.65;;;0.80;;
64915;SDS011;51427;-27.442;153.014;2024-03-02T08:24:31;4.50;;;1.20;;
64915;SDS011;51427;-27.442;153.014;2024-03-02T08:27:01;2.70;;;0.90;;
64915;SDS011;51427;-27.442;153.014;2024-03-02T08:29:29;5.32;;;1.15;;
64915;SDS011;51427;-27.442;153.014;2024-03-02T08:31:57;3.35;;;0.88;;
64915;SDS011;51427;-27.442;153.014;2024-03-02T08:34:24;4.78;;;1.17;;
64915;SDS011;51427;-27.442;153.014;2024-03-02T08:36:51;4.95;;;0.80;;
64915;SDS011;51427;-27.442;153.014;2024-03-02T08:39:19;4.10;;;1.33;;
64915;SDS011;51427;-27.442;153.014;2024-03-02T08:41:46;5.53;;;1.80;;
64915;SDS011;51427;-27.442;153.014;2024-03-02T08:44:14;3.30;;;0.93;;
64915;SDS011;51427;-27.442;153.014;2024-03-02T08:46:43;5.72;;;1.70;;
64915;SDS011;51427;-27.442;153.014;2024-03-02T08:49:11;8.50;;;2.15;;
64915;SDS011;51427;-27.442;153.014;2024-03-02T08:51:38;5.10;;;1.30;;
64915;SDS011;51427;-27.442;153.014;2024-03-02T08:54:05;4.70;;;1.20;;
64915;SDS011;51427;-27.442;153.014;2024-03-02T08:56:33;4.55;;;1.40;;
64915;SDS011;51427;-27.442;153.014;2024-03-02T08:59:00;4.03;;;1.30;;
64915;SDS011;51427;-27.442;153.014;2024-03-02T09:01:27;3.65;;;1.17;;
64915;SDS011;51427;-27.442;153.014;2024-03-02T09:03:55;3.92;;;1.42;;
64915;SDS011;51427;-27.442;153.014;2024-03-02T09:06:22;4.90;;;2.15;;
64915;SDS011;51427;-27.442;153.014;2024-03-02T09:08:49;8.70;;;3.47;;
64915;SDS011;51427;-27.442;153.014;2024-03-02T09:11:17;4.70;;;3.10;;
64915;SDS011;51427;-27.442;153.014;2024-03-02T09:13:44;6.22;;;2.70;;
64915;SDS011;51427;-27.442;153.014;2024-03-02T09:16:12;6.50;;;2.28;;
64915;SDS011;51427;-27.442;153.014;2024-03-02T09:18:39;5.50;;;1.52;;
64915;SDS011;51427;-27.442;153.014;2024-03-02T09:21:06;3.90;;;1.35;;
64915;SDS011;51427;-27.442;153.014;2024-03-02T09:23:34;5.13;;;0.98;;
64915;SDS011;51427;-27.442;153.014;2024-03-02T09:26:01;6.85;;;2.15;;
64915;SDS011;51427;-27.442;153.014;2024-03-02T09:28:29;6.35;;;1.52;;
64915;SDS011;51427;-27.442;153.014;2024-03-02T09:30:56;5.70;;;1.30;;
64915;SDS011;51427;-27.442;153.014;2024-03-02T09:33:23;7.88;;;1.40;;
64915;SDS011;51427;-27.442;153.014;2024-03-02T09:35:50;3.45;;;1.08;;
64915;SDS011;51427;-27.442;153.014;2024-03-02T09:38:18;5.20;;;1.88;;
64915;SDS011;51427;-27.442;153.014;2024-03-02T09:40:45;4.65;;;1.63;;
64915;SDS011;51427;-27.442;153.014;2024-03-02T09:43:13;13.90;;;6.50;;
64915;SDS011;51427;-27.442;153.014;2024-03-02T09:45:40;12.77;;;8.35;;
64915;SDS011;51427;-27.442;153.014;2024-03-02T09:48:08;8.27;;;4.70;;
64915;SDS011;51427;-27.442;153.014;2024-03-02T09:50:35;28.42;;;25.42;;
64915;SDS011;51427;-27.442;153.014;2024-03-02T09:53:02;44.15;;;40.08;;
64915;SDS011;51427;-27.442;153.014;2024-03-02T09:55:30;143.60;;;118.90;;
64915;SDS011;51427;-27.442;153.014;2024-03-02T09:57:58;100.53;;;74.13;;
64915;SDS011;51427;-27.442;153.014;2024-03-02T10:00:25;99.93;;;79.68;;
64915;SDS011;51427;-27.442;153.014;2024-03-02T10:02:52;72.53;;;54.88;;
64915;SDS011;51427;-27.442;153.014;2024-03-02T10:05:26;41.85;;;30.98;;
64915;SDS011;51427;-27.442;153.014;2024-03-02T10:08:00;20.65;;;12.05;;
64915;SDS011;51427;-27.442;153.014;2024-03-02T10:10:35;41.40;;;28.95;;
64915;SDS011;51427;-27.442;153.014;2024-03-02T10:13:07;5.97;;;2.28;;
64915;SDS011;51427;-27.442;153.014;2024-03-02T10:15:35;8.18;;;3.83;;
64915;SDS011;51427;-27.442;153.014;2024-03-02T10:18:14;8.77;;;3.80;;
64915;SDS011;51427;-27.442;153.014;2024-03-02T10:20:54;15.02;;;9.55;;
64915;SDS011;51427;-27.442;153.014;2024-03-02T10:23:39;6.78;;;3.40;;
64915;SDS011;51427;-27.442;153.014;2024-03-02T10:26:19;6.95;;;3.33;;
64915;SDS011;51427;-27.442;153.014;2024-03-02T10:28:46;4.97;;;1.63;;
64915;SDS011;51427;-27.442;153.014;2024-03-02T10:31:14;5.93;;;2.95;;
64915;SDS011;51427;-27.442;153.014;2024-03-02T10:33:41;4.97;;;1.45;;
64915;SDS011;51427;-27.442;153.014;2024-03-02T10:36:09;6.35;;;1.40;;
64915;SDS011;51427;-27.442;153.014;2024-03-02T10:38:36;5.80;;;1.58;;
64915;SDS011;51427;-27.442;153.014;2024-03-02T10:41:03;4.22;;;1.88;;
64915;SDS011;51427;-27.442;153.014;2024-03-02T10:43:31;3.47;;;1.33;;
64915;SDS011;51427;-27.442;153.014;2024-03-02T10:45:58;5.22;;;1.70;;
64915;SDS011;51427;-27.442;153.014;2024-03-02T10:48:26;5.72;;;1.92;;
64915;SDS011;51427;-27.442;153.014;2024-03-02T10:50:54;4.07;;;1.42;;
64915;SDS011;51427;-27.442;153.014;2024-03-02T10:53:24;2.33;;;1.23;;
64915;SDS011;51427;-27.442;153.014;2024-03-02T10:55:52;2.50;;;1.23;;
64915;SDS011;51427;-27.442;153.014;2024-03-02T10:58:30;5.32;;;1.60;;
64915;SDS011;51427;-27.442;153.014;2024-03-02T11:01:02;3.42;;;1.02;;
64915;SDS011;51427;-27.442;153.014;2024-03-02T11:03:33;4.57;;;1.27;;
64915;SDS011;51427;-27.442;153.014;2024-03-02T11:06:07;4.57;;;1.08;;
64915;SDS011;51427;-27.442;153.014;2024-03-02T11:08:36;4.55;;;1.40;;
64915;SDS011;51427;-27.442;153.014;2024-03-02T11:11:06;4.72;;;1.08;;
64915;SDS011;51427;-27.442;153.014;2024-03-02T11:13:39;5.93;;;1.13;;
64915;SDS011;51427;-27.442;153.014;2024-03-02T11:16:16;3.17;;;1.25;;
64915;SDS011;51427;-27.442;153.014;2024-03-02T11:19:15;4.25;;;0.95;;
64915;SDS011;51427;-27.442;153.014;2024-03-02T11:21:43;5.80;;;1.23;;
64915;SDS011;51427;-27.442;153.014;2024-03-02T11:26:53;3.65;;;1.52;;
64915;SDS011;51427;-27.442;153.014;2024-03-02T11:32:05;3.40;;;1.15;;
64915;SDS011;51427;-27.442;153.014;2024-03-02T11:34:40;6.93;;;1.25;;
64915;SDS011;51427;-27.442;153.014;2024-03-02T11:37:12;4.43;;;1.10;;
64915;SDS011;51427;-27.442;153.014;2024-03-02T11:39:40;4.68;;;1.45;;
64915;SDS011;51427;-27.442;153.014;2024-03-02T11:42:09;4.05;;;1.25;;
64915;SDS011;51427;-27.442;153.014;2024-03-02T11:44:41;3.95;;;1.40;;
64915;SDS011;51427;-27.442;153.014;2024-03-02T11:47:11;5.07;;;1.38;;
64915;SDS011;51427;-27.442;153.014;2024-03-02T11:49:44;3.72;;;1.38;;
64915;SDS011;51427;-27.442;153.014;2024-03-02T11:52:15;9.40;;;1.52;;
64915;SDS011;51427;-27.442;153.014;2024-03-02T11:54:45;3.97;;;1.33;;
64915;SDS011;51427;-27.442;153.014;2024-03-02T11:57:15;5.57;;;1.40;;
64915;SDS011;51427;-27.442;153.014;2024-03-02T11:59:43;4.60;;;1.17;;
64915;SDS011;51427;-27.442;153.014;2024-03-02T12:02:18;4.10;;;1.27;;
64915;SDS011;51427;-27.442;153.014;2024-03-02T12:04:47;3.83;;;1.08;;
64915;SDS011;51427;-27.442;153.014;2024-03-02T12:07:21;4.68;;;1.58;;
64915;SDS011;51427;-27.442;153.014;2024-03-02T12:10:10;7.13;;;1.60;;
64915;SDS011;51427;-27.442;153.014;2024-03-02T12:12:37;4.60;;;0.98;;
64915;SDS011;51427;-27.442;153.014;2024-03-02T12:15:04;4.38;;;1.10;;
64915;SDS011;51427;-27.442;153.014;2024-03-02T12:17:32;2.97;;;1.20;;
64915;SDS011;51427;-27.442;153.014;2024-03-02T12:20:02;6.38;;;1.27;;
64915;SDS011;51427;-27.442;153.014;2024-03-02T12:22:32;5.18;;;1.13;;
64915;SDS011;51427;-27.442;153.014;2024-03-02T12:25:00;5.70;;;1.25;;
64915;SDS011;51427;-27.442;153.014;2024-03-02T12:27:28;4.60;;;1.23;;
64915;SDS011;51427;-27.442;153.014;2024-03-02T12:29:56;7.18;;;1.05;;
64915;SDS011;51427;-27.442;153.014;2024-03-02T12:32:23;3.85;;;0.98;;
64915;SDS011;51427;-27.442;153.014;2024-03-02T12:34:50;4.47;;;1.35;;
64915;SDS011;51427;-27.442;153.014;2024-03-02T12:37:18;5.20;;;1.25;;
64915;SDS011;51427;-27.442;153.014;2024-03-02T12:39:45;4.10;;;1.10;;
64915;SDS011;51427;-27.442;153.014;2024-03-02T12:42:13;5.43;;;1.27;;
64915;SDS011;51427;-27.442;153.014;2024-03-02T12:44:40;4.78;;;1.00;;
64915;SDS011;51427;-27.442;153.014;2024-03-02T12:47:07;4.10;;;1.33;;
64915;SDS011;51427;-27.442;153.014;2024-03-02T12:49:35;5.70;;;1.63;;
64915;SDS011;51427;-27.442;153.014;2024-03-02T12:52:02;7.20;;;0.90;;
64915;SDS011;51427;-27.442;153.014;2024-03-02T12:54:29;3.05;;;1.13;;
64915;SDS011;51427;-27.442;153.014;2024-03-02T12:56:57;5.20;;;1.13;;
64915;SDS011;51427;-27.442;153.014;2024-03-02T12:59:24;6.05;;;1.10;;
64915;SDS011;51427;-27.442;153.014;2024-03-02T13:01:55;3.33;;;0.82;;
64915;SDS011;51427;-27.442;153.014;2024-03-02T13:04:27;3.45;;;0.88;;
64915;SDS011;51427;-27.442;153.014;2024-03-02T13:06:56;3.92;;;1.20;;
64915;SDS011;51427;-27.442;153.014;2024-03-02T13:09:24;5.03;;;1.25;;
64915;SDS011;51427;-27.442;153.014;2024-03-02T13:11:51;1.92;;;0.88;;
64915;SDS011;51427;-27.442;153.014;2024-03-02T13:14:21;4.00;;;0.90;;
64915;SDS011;51427;-27.442;153.014;2024-03-02T13:16:50;5.35;;;0.90;;
64915;SDS011;51427;-27.442;153.014;2024-03-02T13:19:22;5.07;;;1.38;;
64915;SDS011;51427;-27.442;153.014;2024-03-02T13:21:50;4.68;;;1.33;;
64915;SDS011;51427;-27.442;153.014;2024-03-02T13:24:18;4.40;;;1.13;;
64915;SDS011;51427;-27.442;153.014;2024-03-02T13:26:45;5.47;;;1.58;;
64915;SDS011;51427;-27.442;153.014;2024-03-02T13:29:12;4.95;;;1.33;;
64915;SDS011;51427;-27.442;153.014;2024-03-02T13:31:40;5.85;;;1.75;;
64915;SDS011;51427;-27.442;153.014;2024-03-02T13:34:07;5.32;;;1.40;;
64915;SDS011;51427;-27.442;153.014;2024-03-02T13:36:34;4.95;;;1.20;;
64915;SDS011;51427;-27.442;153.014;2024-03-02T13:39:02;3.85;;;1.10;;
64915;SDS011;51427;-27.442;153.014;2024-03-02T13:41:31;5.50;;;1.23;;
64915;SDS011;51427;-27.442;153.014;2024-03-02T13:43:58;4.20;;;1.23;;
64915;SDS011;51427;-27.442;153.014;2024-03-02T13:46:27;5.30;;;1.40;;
64915;SDS011;51427;-27.442;153.014;2024-03-02T13:48:54;4.82;;;1.50;;
64915;SDS011;51427;-27.442;153.014;2024-03-02T13:51:22;7.30;;;1.30;;
64915;SDS011;51427;-27.442;153.014;2024-03-02T13:53:49;7.10;;;1.42;;
64915;SDS011;51427;-27.442;153.014;2024-03-02T13:56:16;10.45;;;1.25;;
64915;SDS011;51427;-27.442;153.014;2024-03-02T13:58:44;4.97;;;1.60;;
64915;SDS011;51427;-27.442;153.014;2024-03-02T14:01:11;4.97;;;1.40;;
64915;SDS011;51427;-27.442;153.014;2024-03-02T14:03:39;2.58;;;1.20;;
64915;SDS011;51427;-27.442;153.014;2024-03-02T14:06:06;5.20;;;1.48;;
64915;SDS011;51427;-27.442;153.014;2024-03-02T14:08:34;2.70;;;1.10;;
64915;SDS011;51427;-27.442;153.014;2024-03-02T14:11:01;3.20;;;1.20;;
64915;SDS011;51427;-27.442;153.014;2024-03-02T14:13:29;3.28;;;1.40;;
64915;SDS011;51427;-27.442;153.014;2024-03-02T14:15:56;6.70;;;1.20;;
64915;SDS011;51427;-27.442;153.014;2024-03-02T14:18:23;4.80;;;1.40;;
64915;SDS011;51427;-27.442;153.014;2024-03-02T14:20:51;4.15;;;1.73;;
64915;SDS011;51427;-27.442;153.014;2024-03-02T14:23:18;7.15;;;2.00;;
64915;SDS011;51427;-27.442;153.014;2024-03-02T14:25:46;5.22;;;1.58;;